createdAt,value
2022-09-07T00:01:24.670Z,82.72
2022-09-07T00:03:47.560Z,83.67
2022-09-07T00:06:12.677Z,83.85
2022-09-07T00:08:35.783Z,83.43
2022-09-07T00:11:01.076Z,83.85
2022-09-07T00:13:25.855Z,84.27
2022-09-07T00:15:48.517Z,84.31
2022-09-07T00:18:11.164Z,85.02
2022-09-07T00:20:34.140Z,84.92
2022-09-07T00:22:57.349Z,84.79
2022-09-07T00:25:20.006Z,84.81
2022-09-07T00:27:43.345Z,84.65
2022-09-07T00:30:06.999Z,84.27
2022-09-07T00:32:29.613Z,84.48
2022-09-07T00:34:52.230Z,84.12
2022-09-07T00:37:14.897Z,83.85
2022-09-07T00:39:37.643Z,84.47
2022-09-07T00:42:01.981Z,84.83
2022-09-07T00:44:42.697Z,84.54
2022-09-07T00:47:40.401Z,84.42
2022-09-07T00:50:10.019Z,84.74
2022-09-07T00:52:34.553Z,85.24
2022-09-07T00:55:02.987Z,84.33
2022-09-07T00:57:28.172Z,84.19
2022-09-07T00:59:53.517Z,84.84
2022-09-07T01:02:17.596Z,85.16
2022-09-07T01:04:40.885Z,84.97
2022-09-07T01:07:04.187Z,84.93
2022-09-07T01:09:28.319Z,85.10
2022-09-07T01:11:52.575Z,85.02
2022-09-07T01:14:15.936Z,85.49
2022-09-07T01:17:02.952Z,85.55
2022-09-07T01:19:55.901Z,85.82
2022-09-07T01:22:36.543Z,86.08
2022-09-07T01:24:59.174Z,85.75
2022-09-07T01:27:33.580Z,85.99
2022-09-07T01:30:09.641Z,86.29
2022-09-07T01:32:59.520Z,86.40
2022-09-07T01:36:00.605Z,86.91
2022-09-07T01:38:31.858Z,87.33
2022-09-07T01:41:03.364Z,87.60
2022-09-07T01:43:40.156Z,87.07
2022-09-07T01:46:07.800Z,87.02
2022-09-07T01:48:33.717Z,86.99
2022-09-07T01:51:01.658Z,86.90
2022-09-07T01:53:34.159Z,87.40
2022-09-07T01:56:01.797Z,87.41
2022-09-07T01:58:27.495Z,88.15
2022-09-07T02:01:16.136Z,87.49
2022-09-07T02:04:13.927Z,88.10
2022-09-07T02:06:59.252Z,88.21
2022-09-07T02:09:46.187Z,88.32
2022-09-07T02:12:18.828Z,87.85
2022-09-07T02:14:46.457Z,88.43
2022-09-07T02:17:33.826Z,88.11
2022-09-07T02:20:01.570Z,87.89
2022-09-07T02:22:29.417Z,87.60
2022-09-07T02:24:56.253Z,87.65
2022-09-07T02:27:26.623Z,87.37
2022-09-07T02:29:49.254Z,87.12
2022-09-07T02:32:11.959Z,87.31
2022-09-07T02:34:35.007Z,87.40
2022-09-07T02:36:59.930Z,87.34
2022-09-07T02:39:22.688Z,87.75
2022-09-07T02:41:46.113Z,87.17
2022-09-07T02:44:15.217Z,86.81
2022-09-07T02:46:50.548Z,86.86
2022-09-07T02:49:35.712Z,86.23
2022-09-07T02:52:17.262Z,86.31
2022-09-07T02:55:09.204Z,86.00
2022-09-07T02:58:07.568Z,85.56
2022-09-07T03:00:35.136Z,85.55
2022-09-07T03:03:21.248Z,85.88
2022-09-07T03:05:50.835Z,85.66
2022-09-07T03:08:24.393Z,85.56
2022-09-07T03:10:48.257Z,85.29
2022-09-07T03:13:21.880Z,85.41
2022-09-07T03:15:44.557Z,85.72
2022-09-07T03:18:07.647Z,85.78
2022-09-07T03:20:30.299Z,85.81
2022-09-07T03:22:52.992Z,86.15
2022-09-07T03:25:16.060Z,85.28
2022-09-07T03:27:38.949Z,85.36
2022-09-07T03:30:02.201Z,85.27
2022-09-07T03:32:25.222Z,85.40
2022-09-07T03:34:48.581Z,85.28
2022-09-07T03:37:11.315Z,85.25
2022-09-07T03:39:34.908Z,85.46
2022-09-07T03:41:57.492Z,85.46
2022-09-07T03:44:20.081Z,85.14
2022-09-07T03:46:44.266Z,85.12
2022-09-07T03:49:06.876Z,85.35
2022-09-07T03:51:29.600Z,85.63
2022-09-07T03:53:52.459Z,86.04
2022-09-07T03:56:19.077Z,85.78
2022-09-07T03:58:42.135Z,85.46
2022-09-07T04:01:10.065Z,85.47
2022-09-07T04:03:32.813Z,85.51
2022-09-07T04:05:57.402Z,85.68
2022-09-07T04:08:20.143Z,86.16
2022-09-07T04:10:42.806Z,86.06
2022-09-07T04:13:06.145Z,86.27
2022-09-07T04:15:29.291Z,86.25
2022-09-07T04:17:52.316Z,86.12
2022-09-07T04:20:35.553Z,86.10
2022-09-07T04:23:19.167Z,86.09
2022-09-07T04:25:49.070Z,85.88
2022-09-07T04:28:11.738Z,85.47
2022-09-07T04:30:36.067Z,85.59
2022-09-07T04:32:58.663Z,85.23
2022-09-07T04:35:21.236Z,85.11
2022-09-07T04:37:44.650Z,85.07
2022-09-07T04:40:08.013Z,84.48
2022-09-07T04:42:31.042Z,84.48
2022-09-07T04:44:53.548Z,83.78
2022-09-07T04:47:17.756Z,83.36
2022-09-07T04:49:40.501Z,83.05
2022-09-07T04:52:03.442Z,83.43
2022-09-07T04:54:26.852Z,82.38
2022-09-07T04:56:49.531Z,81.69
2022-09-07T04:59:12.330Z,81.60
2022-09-07T05:01:35.186Z,81.41
2022-09-07T05:04:01.178Z,81.19
2022-09-07T05:06:24.178Z,81.16
2022-09-07T05:08:49.304Z,80.91
2022-09-07T05:11:13.285Z,80.82
2022-09-07T05:13:36.528Z,80.85
2022-09-07T05:16:00.117Z,79.94
2022-09-07T05:18:22.944Z,79.59
2022-09-07T05:20:45.581Z,78.93
2022-09-07T05:23:08.964Z,79.01
2022-09-07T05:25:31.711Z,78.60
2022-09-07T05:27:55.277Z,78.46
2022-09-07T05:33:00.735Z,76.01
2022-09-07T05:35:23.467Z,76.30
2022-09-07T05:37:50.810Z,75.05
2022-09-07T05:40:15.499Z,75.10
2022-09-07T05:42:38.710Z,75.48
2022-09-07T05:45:01.504Z,76.07
2022-09-07T05:47:24.688Z,74.42
2022-09-07T05:49:47.766Z,71.59
2022-09-07T05:52:10.929Z,68.90
2022-09-07T05:54:34.043Z,67.88
2022-09-07T05:56:56.846Z,67.56
2022-09-07T05:59:19.524Z,69.54
2022-09-07T06:01:42.471Z,69.09
2022-09-07T06:04:05.367Z,70.44
2022-09-07T06:06:28.227Z,71.60
2022-09-07T06:08:53.149Z,72.12
2022-09-07T06:11:21.777Z,73.96
2022-09-07T06:13:44.823Z,73.49
2022-09-07T06:16:09.208Z,74.05
2022-09-07T06:18:36.796Z,74.14
2022-09-07T06:21:07.234Z,75.09
2022-09-07T06:23:34.227Z,75.14
2022-09-07T06:25:56.896Z,76.14
2022-09-07T06:28:20.561Z,75.67
2022-09-07T06:30:43.143Z,76.35
2022-09-07T06:33:05.829Z,76.17
2022-09-07T06:35:28.568Z,75.87
2022-09-07T06:37:51.513Z,75.43
2022-09-07T06:40:14.412Z,75.72
2022-09-07T06:42:37.375Z,76.24
2022-09-07T06:44:59.961Z,76.41
2022-09-07T06:47:22.684Z,76.49
2022-09-07T06:49:45.485Z,75.84
2022-09-07T06:52:08.319Z,75.41
2022-09-07T06:57:13.980Z,75.22
2022-09-07T06:59:37.344Z,75.36
2022-09-07T07:02:00.178Z,74.70
2022-09-07T07:04:52.393Z,73.70
2022-09-07T07:07:15.336Z,73.87
2022-09-07T07:09:38.986Z,73.91
2022-09-07T07:12:02.576Z,74.59
2022-09-07T07:14:44.982Z,74.25
2022-09-07T07:17:09.062Z,74.53
2022-09-07T07:19:32.079Z,74.50
2022-09-07T07:22:18.338Z,74.49
2022-09-07T07:24:37.920Z,75.07
2022-09-07T07:27:00.533Z,74.29
2022-09-07T07:29:25.113Z,74.94
2022-09-07T07:31:51.469Z,74.84
2022-09-07T07:34:15.899Z,74.60
2022-09-07T07:36:40.705Z,74.06
2022-09-07T07:39:05.166Z,73.12
2022-09-07T07:44:15.318Z,69.49
2022-09-07T07:46:38.379Z,69.84
2022-09-07T07:49:01.269Z,70.50
2022-09-07T07:51:24.460Z,70.80
2022-09-07T07:53:47.625Z,70.52
2022-09-07T07:56:12.033Z,72.37
2022-09-07T07:58:36.929Z,71.84
2022-09-07T08:01:14.080Z,71.36
2022-09-07T08:03:39.326Z,72.68
2022-09-07T08:06:31.233Z,72.03
2022-09-07T08:08:55.970Z,71.01
2022-09-07T08:11:20.897Z,71.43
2022-09-07T08:13:46.568Z,70.79
2022-09-07T08:16:10.412Z,70.57
2022-09-07T08:18:35.256Z,68.56
2022-09-07T08:21:10.171Z,69.56
2022-09-07T08:23:33.489Z,68.72
2022-09-07T08:25:58.472Z,69.08
2022-09-07T08:28:23.524Z,68.50
2022-09-07T08:30:46.172Z,69.22
2022-09-07T08:33:10.594Z,67.98
2022-09-07T08:35:33.211Z,66.99
2022-09-07T08:37:57.228Z,67.82
2022-09-07T08:40:20.642Z,67.35
2022-09-07T08:43:01.924Z,66.96
2022-09-07T08:45:51.734Z,66.97
2022-09-07T08:48:18.936Z,67.22
2022-09-07T08:51:12.314Z,67.48
2022-09-07T08:53:36.902Z,67.27
2022-09-07T08:56:04.286Z,67.05
2022-09-07T08:58:55.882Z,67.66
2022-09-07T09:01:37.447Z,67.88
2022-09-07T09:04:17.257Z,67.96
2022-09-07T09:07:07.249Z,68.20
2022-09-07T09:10:15.070Z,66.62
2022-09-07T09:12:55.231Z,67.47
2022-09-07T09:15:45.377Z,68.06
2022-09-07T09:18:14.495Z,66.98
2022-09-07T09:20:49.006Z,66.20
2022-09-07T09:23:14.943Z,65.80
2022-09-07T09:25:40.751Z,64.28
2022-09-07T09:28:03.494Z,65.10
2022-09-07T09:30:27.797Z,65.49
2022-09-07T09:33:11.452Z,66.74
2022-09-07T09:35:38.882Z,65.08
2022-09-07T09:38:03.676Z,66.26
2022-09-07T09:40:30.367Z,63.66
2022-09-07T09:43:01.864Z,63.62
2022-09-07T09:45:27.263Z,63.19
2022-09-07T09:47:52.890Z,63.58
2022-09-07T09:53:07.134Z,62.88
2022-09-07T09:55:35.471Z,62.33
2022-09-07T10:04:01.503Z,61.69
2022-09-07T10:07:16.331Z,62.04
2022-09-07T10:09:42.401Z,62.20
2022-09-07T10:12:08.045Z,61.76
2022-09-07T10:14:33.371Z,61.47
2022-09-07T10:16:57.989Z,61.79
2022-09-07T10:19:30.055Z,61.27
2022-09-07T10:22:02.171Z,61.48
2022-09-07T10:24:27.040Z,61.35
2022-09-07T10:26:50.355Z,60.31
2022-09-07T10:29:30.554Z,61.63
2022-09-07T10:32:09.191Z,61.10
2022-09-07T10:34:34.438Z,60.64
2022-09-07T10:37:04.418Z,59.15
2022-09-07T10:39:42.337Z,59.68
2022-09-07T10:42:26.222Z,59.90
2022-09-07T10:45:04.416Z,58.68
2022-09-07T10:47:56.685Z,59.60
2022-09-07T10:50:41.218Z,60.02
2022-09-07T10:53:39.125Z,59.29
2022-09-07T10:56:19.806Z,58.87
2022-09-07T10:59:02.960Z,58.06
2022-09-07T11:02:14.460Z,59.12
2022-09-07T11:04:44.437Z,59.39
2022-09-07T11:07:15.719Z,58.40
2022-09-07T11:10:01.446Z,56.40
2022-09-07T11:12:37.898Z,56.24
2022-09-07T11:15:12.417Z,56.54
2022-09-07T11:17:52.023Z,55.94
2022-09-07T11:20:41.726Z,57.56
2022-09-07T11:23:14.474Z,58.06
2022-09-07T11:25:46.637Z,56.20
2022-09-07T11:28:26.837Z,57.84
2022-09-07T11:31:00.046Z,57.45
2022-09-07T11:33:28.749Z,56.88
2022-09-07T11:36:02.785Z,55.83
2022-09-07T11:38:51.347Z,55.41
2022-09-07T11:41:29.443Z,56.93
2022-09-07T11:44:45.863Z,56.24
2022-09-07T11:47:18.780Z,56.58
2022-09-07T11:49:41.569Z,57.23
2022-09-07T11:52:23.029Z,56.48
2022-09-07T11:54:53.909Z,57.62
2022-09-07T11:57:43.511Z,57.65
2022-09-07T12:00:12.124Z,57.37
2022-09-07T12:03:06.210Z,57.20
2022-09-07T12:05:31.750Z,56.65
2022-09-07T12:08:09.944Z,57.07
2022-09-07T12:11:08.146Z,58.65
2022-09-07T12:13:43.852Z,56.24
2022-09-07T12:16:22.532Z,56.42
2022-09-07T12:19:26.757Z,56.13
2022-09-07T12:21:52.722Z,55.52
2022-09-07T12:24:43.316Z,56.33
2022-09-07T12:27:26.486Z,55.26
2022-09-07T12:29:52.587Z,55.21
2022-09-07T12:32:58.719Z,54.29
2022-09-07T12:35:28.790Z,54.01
2022-09-07T12:37:51.478Z,54.15
2022-09-07T12:40:29.730Z,55.73
2022-09-07T12:43:12.291Z,54.18
2022-09-07T12:45:49.885Z,55.41
2022-09-07T12:48:15.471Z,53.88
2022-09-07T12:50:56.923Z,54.56
2022-09-07T12:53:46.025Z,54.35
2022-09-07T12:56:16.398Z,54.06
2022-09-07T12:58:53.459Z,54.48
2022-09-07T13:01:36.754Z,54.77
2022-09-07T13:04:05.231Z,54.84
2022-09-07T13:09:40.805Z,55.73
2022-09-07T13:12:58.842Z,54.94
2022-09-07T13:15:41.624Z,54.00
2022-09-07T13:18:29.216Z,54.39
2022-09-07T13:21:07.925Z,55.06
2022-09-07T13:23:31.429Z,55.14
2022-09-07T13:25:56.019Z,54.71
2022-09-07T13:28:31.883Z,53.81
2022-09-07T13:31:08.597Z,52.66
2022-09-07T13:33:52.361Z,53.44
2022-09-07T13:36:44.833Z,51.54
2022-09-07T13:39:12.922Z,50.95
2022-09-07T13:41:41.264Z,50.83
2022-09-07T13:44:05.724Z,52.76
2022-09-07T13:46:53.303Z,53.52
2022-09-07T13:49:52.483Z,53.18
2022-09-07T13:52:44.199Z,52.74
2022-09-07T13:55:34.392Z,52.74
2022-09-07T13:58:18.028Z,53.04
2022-09-07T14:01:13.201Z,52.34
2022-09-07T14:03:59.748Z,51.30
2022-09-07T14:06:22.318Z,51.84
2022-09-07T14:08:50.077Z,51.16
2022-09-07T14:11:42.121Z,51.03
2022-09-07T14:14:24.880Z,51.71
2022-09-07T14:17:00.879Z,51.38
2022-09-07T14:19:45.376Z,51.34
2022-09-07T14:22:28.870Z,51.64
2022-09-07T14:25:07.147Z,52.39
2022-09-07T14:27:40.942Z,51.92
2022-09-07T14:30:42.042Z,51.59
2022-09-07T14:33:13.582Z,51.05
2022-09-07T14:35:39.488Z,52.35
2022-09-07T14:41:16.021Z,52.61
2022-09-07T14:43:50.776Z,51.65
2022-09-07T14:46:22.284Z,51.97
2022-09-07T14:48:46.807Z,51.82
2022-09-07T14:51:29.735Z,51.38
2022-09-07T14:53:57.666Z,50.89
2022-09-07T14:56:23.262Z,51.29
2022-09-07T14:58:46.314Z,51.10
2022-09-07T15:04:00.664Z,51.83
2022-09-07T15:09:38.960Z,52.44
2022-09-07T15:12:27.324Z,53.03
2022-09-07T15:14:55.732Z,53.78
2022-09-07T15:20:32.375Z,53.44
2022-09-07T15:22:55.693Z,53.43
2022-09-07T15:25:18.160Z,53.12
2022-09-07T15:27:40.951Z,52.66
2022-09-07T15:30:03.879Z,52.86
2022-09-07T15:32:26.379Z,52.56
2022-09-07T15:34:49.385Z,52.70
2022-09-07T15:39:55.196Z,53.97
2022-09-07T15:45:01.931Z,54.38
2022-09-07T15:50:08.584Z,55.48
2022-09-07T15:52:32.139Z,55.07
2022-09-07T15:54:56.685Z,55.48
2022-09-07T16:00:02.317Z,55.19
2022-09-07T16:03:07.566Z,55.21
2022-09-07T16:05:19.426Z,54.99
2022-09-07T16:10:25.955Z,55.82
2022-09-07T16:13:10.687Z,56.24
2022-09-07T16:15:31.920Z,56.12
2022-09-07T16:17:54.498Z,56.17
2022-09-07T16:20:17.248Z,55.92
2022-09-07T16:25:22.440Z,56.82
2022-09-07T16:27:44.960Z,56.89
2022-09-07T16:30:08.475Z,56.95
2022-09-07T16:32:46.459Z,57.15
2022-09-07T16:35:09.579Z,57.22
2022-09-07T16:37:32.159Z,57.32
2022-09-07T16:39:54.942Z,57.55
2022-09-07T16:42:17.655Z,57.60
2022-09-07T16:44:40.418Z,57.65
2022-09-07T16:47:04.425Z,58.07
2022-09-07T16:49:28.849Z,58.77
2022-09-07T16:51:52.353Z,59.13
2022-09-07T16:54:15.890Z,59.70
2022-09-07T16:56:39.300Z,60.15
2022-09-07T16:59:04.249Z,60.30
2022-09-07T17:01:32.641Z,60.63
2022-09-07T17:03:55.509Z,60.59
2022-09-07T17:06:20.488Z,61.53
2022-09-07T17:08:44.025Z,61.30
2022-09-07T17:11:09.026Z,61.52
2022-09-07T17:13:36.143Z,62.02
2022-09-07T17:16:07.806Z,62.30
2022-09-07T17:21:14.669Z,62.91
2022-09-07T17:23:45.643Z,63.37
2022-09-07T17:26:18.034Z,63.74
2022-09-07T17:28:44.106Z,63.98
2022-09-07T17:31:09.843Z,64.15
2022-09-07T17:33:34.121Z,64.77
2022-09-07T17:35:59.834Z,64.76
2022-09-07T17:41:13.893Z,64.80
2022-09-07T17:43:45.229Z,64.96
2022-09-07T17:46:37.976Z,64.10
2022-09-07T17:49:02.310Z,64.38
2022-09-07T17:51:27.221Z,64.56
2022-09-07T17:53:50.053Z,64.14
2022-09-07T17:56:14.900Z,63.88
2022-09-07T17:58:39.661Z,64.66
2022-09-07T18:01:03.600Z,64.41
2022-09-07T18:03:28.611Z,64.55
2022-09-07T18:05:55.734Z,64.78
2022-09-07T18:08:18.542Z,65.17
2022-09-07T18:13:35.100Z,65.48
2022-09-07T18:15:59.906Z,65.66
2022-09-07T18:18:22.427Z,65.64
2022-09-07T18:20:45.127Z,66.05
2022-09-07T18:23:08.854Z,66.29
2022-09-07T18:25:33.775Z,66.05
2022-09-07T18:30:42.167Z,66.37
2022-09-07T18:33:05.658Z,66.02
2022-09-07T18:35:28.179Z,65.84
2022-09-07T18:37:51.010Z,66.76
2022-09-07T18:40:13.730Z,66.46
2022-09-07T18:42:36.445Z,66.68
2022-09-07T18:47:44.230Z,67.80
2022-09-07T18:50:07.425Z,66.31
2022-09-07T18:55:12.487Z,66.76
2022-09-07T18:57:36.115Z,66.53
2022-09-07T18:59:58.829Z,66.48
2022-09-07T19:02:21.399Z,66.83
2022-09-07T19:07:30.042Z,67.59
2022-09-07T19:09:52.766Z,68.11
2022-09-07T19:12:15.711Z,68.23
2022-09-07T19:14:38.200Z,68.47
2022-09-07T19:17:00.744Z,68.32
2022-09-07T19:19:24.225Z,68.23
2022-09-07T19:21:46.805Z,69.68
2022-09-07T19:24:15.318Z,68.66
2022-09-07T19:26:40.176Z,68.67
2022-09-07T19:29:04.466Z,70.24
2022-09-07T19:31:28.739Z,69.88
2022-09-07T19:33:55.735Z,69.15
2022-09-07T19:36:18.464Z,69.27
2022-09-07T19:38:41.302Z,69.05
2022-09-07T19:41:03.975Z,68.63
2022-09-07T19:43:29.899Z,68.89
2022-09-07T19:45:52.599Z,67.66
2022-09-07T19:48:15.318Z,67.97
2022-09-07T19:50:38.051Z,67.26
2022-09-07T19:53:00.638Z,67.02
2022-09-07T19:55:23.201Z,66.22
2022-09-07T19:57:47.508Z,65.90
2022-09-07T20:00:10.843Z,65.96
2022-09-07T20:02:36.187Z,65.48
2022-09-07T20:04:59.000Z,66.07
2022-09-07T20:07:21.448Z,66.31
2022-09-07T20:09:44.080Z,65.98
2022-09-07T20:12:08.361Z,65.29
2022-09-07T20:14:30.967Z,64.87
2022-09-07T20:16:53.471Z,65.17
2022-09-07T20:19:16.115Z,66.18
2022-09-07T20:21:38.696Z,66.22
2022-09-07T20:24:01.416Z,66.53
2022-09-07T20:26:23.949Z,67.03
2022-09-07T20:28:46.952Z,67.70
2022-09-07T20:31:11.145Z,68.15
2022-09-07T20:33:34.095Z,68.51
2022-09-07T20:36:09.204Z,68.53
2022-09-07T20:38:32.048Z,68.39
2022-09-07T20:40:56.764Z,68.67
2022-09-07T20:43:21.001Z,68.46
2022-09-07T20:45:43.715Z,68.04
2022-09-07T20:48:06.315Z,68.04
2022-09-07T20:50:29.112Z,68.45
2022-09-07T20:52:52.922Z,69.53
2022-09-07T20:55:15.586Z,70.20
2022-09-07T20:57:38.318Z,70.27
2022-09-07T21:00:01.001Z,70.64
2022-09-07T21:02:23.677Z,71.02
2022-09-07T21:04:46.313Z,71.60
2022-09-07T21:07:09.476Z,72.09
2022-09-07T21:09:32.101Z,72.16
2022-09-07T21:11:57.161Z,72.84
2022-09-07T21:14:21.323Z,73.07
2022-09-07T21:16:43.995Z,73.27
2022-09-07T21:19:09.091Z,73.36
2022-09-07T21:21:38.310Z,73.14
2022-09-07T21:24:03.398Z,73.81
2022-09-07T21:26:27.788Z,73.61
2022-09-07T21:29:04.983Z,74.11
2022-09-07T21:31:29.179Z,74.48
2022-09-07T21:33:59.608Z,75.28
2022-09-07T21:36:23.122Z,76.18
2022-09-07T21:38:45.668Z,76.42
2022-09-07T21:41:13.903Z,76.39
2022-09-07T21:43:36.613Z,76.71
2022-09-07T21:46:07.494Z,76.82
2022-09-07T21:48:30.921Z,77.24
2022-09-07T21:50:57.150Z,77.65
2022-09-07T21:53:19.718Z,77.77
2022-09-07T21:55:42.220Z,77.91
2022-09-07T21:58:04.940Z,77.32
2022-09-07T22:00:27.419Z,77.12
2022-09-07T22:02:51.639Z,77.21
2022-09-07T22:05:14.210Z,77.43
2022-09-07T22:07:37.024Z,77.44
2022-09-07T22:09:59.574Z,77.56
2022-09-07T22:12:22.225Z,77.28
2022-09-07T22:14:46.047Z,77.06
2022-09-07T22:17:09.678Z,77.04
2022-09-07T22:19:35.319Z,77.08
2022-09-07T22:22:00.573Z,77.25
2022-09-07T22:24:23.139Z,77.01
2022-09-07T22:26:46.591Z,77.29
2022-09-07T22:29:11.724Z,77.49
2022-09-07T22:31:36.303Z,77.04
2022-09-07T22:34:00.502Z,77.14
2022-09-07T22:36:26.143Z,77.34
2022-09-07T22:38:52.303Z,77.40
2022-09-07T22:41:22.946Z,77.48
2022-09-07T22:43:45.798Z,77.64
2022-09-07T22:46:09.041Z,78.46
2022-09-07T22:48:31.759Z,78.34
2022-09-07T22:50:59.022Z,78.20
2022-09-07T22:53:22.102Z,78.21
2022-09-07T22:55:44.948Z,78.82
2022-09-07T22:58:07.585Z,78.84
2022-09-07T23:00:30.137Z,79.43
2022-09-07T23:02:53.299Z,79.68
2022-09-07T23:05:16.177Z,79.98
2022-09-07T23:07:38.668Z,80.23
2022-09-07T23:10:01.452Z,80.61
2022-09-07T23:12:23.975Z,81.24
2022-09-07T23:14:46.574Z,81.32
2022-09-07T23:17:09.924Z,81.06
2022-09-07T23:19:32.553Z,81.20
2022-09-07T23:21:55.264Z,80.42
2022-09-07T23:24:18.801Z,80.37
2022-09-07T23:26:41.863Z,80.15
2022-09-07T23:29:04.912Z,80.54
2022-09-07T23:31:31.130Z,80.25
2022-09-07T23:33:54.035Z,79.59
2022-09-07T23:36:17.475Z,79.86
2022-09-07T23:38:39.980Z,79.71
2022-09-07T23:41:02.580Z,79.49
2022-09-07T23:43:27.466Z,79.03
2022-09-07T23:45:50.584Z,78.77
2022-09-07T23:48:13.389Z,78.23
2022-09-07T23:50:35.876Z,78.30
2022-09-07T23:52:58.412Z,77.87
2022-09-07T23:55:21.185Z,77.47
2022-09-07T23:57:43.715Z,77.86
